Time;durP1;ratioP1;P1;durP2;ratioP2;P2;SDS_P1;SDS_P2;PMS_P1;PMS_P2;Temp;Humidity;BMP_temperature;BMP_pressure;BME280_temperature;BME280_humidity;BME280_pressure;Samples;Min_cycle;Max_cycle;Signal;HPM_P1;HPM_P2
2022/12/09 00:01:15;;;;;;;;;;;2.80;99.90;;;;;;2622509;46;19934;31
2022/12/09 00:03:49;;;;;;;;;;;2.80;99.90;;;;;;2622636;46;20753;31
2022/12/09 00:06:24;;;;;;;;;;;2.80;99.90;;;;;;2604028;54;19950;31
2022/12/09 00:08:58;;;;;;;;;;;2.80;99.90;;;;;;2622255;46;19935;31
2022/12/09 00:11:36;;;;;;;;;;;2.80;99.90;;;;;;2603960;54;20796;31
2022/12/09 00:14:13;;;;;;;;;;;2.80;99.90;;;;;;2603965;54;19935;31
2022/12/09 00:16:47;;;;;;;;;;;2.80;99.90;;;;;;2603672;54;20741;31
2022/12/09 00:19:20;;;;;;;;;;;2.80;99.90;;;;;;2621801;46;19938;31
2022/12/09 00:21:55;;;;;;;;;;;2.70;99.90;;;;;;2603630;54;20783;31
2022/12/09 00:24:29;;;;;;;;;;;2.70;99.90;;;;;;2603541;54;19939;31
2022/12/09 00:27:05;;;;;;;;;;;2.70;99.90;;;;;;2603623;54;19989;31
2022/12/09 00:29:39;;;;;;;;;;;2.70;99.90;;;;;;2621920;46;20776;31
2022/12/09 00:32:15;;;;;;;;;;;2.60;99.90;;;;;;2622209;46;19934;31
2022/12/09 00:34:50;;;;;;;;;;;2.60;99.90;;;;;;2620334;46;19989;31
2022/12/09 00:37:23;;;;;;;;;;;2.60;99.90;;;;;;2603038;54;19958;31
2022/12/09 00:39:58;;;;;;;;;;;2.50;99.90;;;;;;2622038;46;19938;31
2022/12/09 00:42:36;;;;;;;;;;;2.50;99.90;;;;;;2603720;54;19934;31
2022/12/09 00:45:09;;;;;;;;;;;2.50;99.90;;;;;;2622117;46;20050;31
2022/12/09 00:47:43;;;;;;;;;;;2.50;99.90;;;;;;2603754;54;20005;31
2022/12/09 00:50:18;;;;;;;;;;;2.50;99.90;;;;;;2622117;46;19934;31
2022/12/09 00:52:52;;;;;;;;;;;2.50;99.90;;;;;;2603478;54;20778;31
2022/12/09 00:55:29;;;;;;;;;;;2.40;99.90;;;;;;2603871;54;20773;31
2022/12/09 00:58:05;;;;;;;;;;;2.40;99.90;;;;;;2622419;46;19934;31
2022/12/09 01:00:39;;;;;;;;;;;2.50;99.90;;;;;;2603663;54;20038;31
2022/12/09 01:03:14;;;;;;;;;;;2.40;99.90;;;;;;2603846;54;19941;31
2022/12/09 01:05:50;;;;;;;;;;;2.40;99.90;;;;;;2622349;46;19939;31
2022/12/09 01:08:24;;;;;;;;;;;2.40;99.90;;;;;;2603642;54;19935;31
2022/12/09 01:10:59;;;;;;;;;;;2.40;99.90;;;;;;2603485;54;20744;31
2022/12/09 01:13:36;;;;;;;;;;;2.40;99.90;;;;;;2603611;54;20784;31
2022/12/09 01:16:15;;;;;;;;;;;2.40;99.90;;;;;;2603444;54;19939;31
2022/12/09 01:18:51;;;;;;;;;;;2.40;99.90;;;;;;2603575;54;20728;31
2022/12/09 01:21:26;;;;;;;;;;;2.40;99.90;;;;;;2603433;54;20746;31
2022/12/09 01:24:00;;;;;;;;;;;2.40;99.90;;;;;;2603541;54;19938;31
2022/12/09 01:26:34;;;;;;;;;;;2.40;99.90;;;;;;2603685;54;19989;31
2022/12/09 01:29:10;;;;;;;;;;;2.40;99.90;;;;;;2603370;54;19934;31
2022/12/09 01:31:44;;;;;;;;;;;2.50;99.90;;;;;;2603849;54;19993;31
2022/12/09 01:34:19;;;;;;;;;;;2.40;99.90;;;;;;2603672;54;19989;31
2022/12/09 01:36:53;;;;;;;;;;;2.50;99.90;;;;;;2603566;54;19939;31
2022/12/09 01:39:29;;;;;;;;;;;2.50;99.90;;;;;;2603548;54;19943;31
2022/12/09 01:42:04;;;;;;;;;;;2.50;99.90;;;;;;2603515;54;19961;31
2022/12/09 01:44:54;;;;;;;;;;;2.50;99.90;;;;;;2603349;54;20031;31
2022/12/09 01:47:31;;;;;;;;;;;2.50;99.90;;;;;;2621914;46;19935;31
2022/12/09 01:50:06;;;;;;;;;;;2.50;99.90;;;;;;2621960;46;19997;31
2022/12/09 01:52:42;;;;;;;;;;;2.50;99.90;;;;;;2621943;46;20748;31
2022/12/09 01:55:17;;;;;;;;;;;2.60;99.90;;;;;;2621883;46;20803;31
2022/12/09 01:57:52;;;;;;;;;;;2.60;99.90;;;;;;2603438;54;19941;31
2022/12/09 02:00:29;;;;;;;;;;;2.60;99.90;;;;;;2603539;54;20014;31
2022/12/09 02:03:07;;;;;;;;;;;2.60;99.90;;;;;;2603614;54;19942;31
2022/12/09 02:05:43;;;;;;;;;;;2.60;99.90;;;;;;2603605;54;19934;31
2022/12/09 02:08:18;;;;;;;;;;;2.60;99.90;;;;;;2603456;54;20815;31
2022/12/09 02:10:58;;;;;;;;;;;2.60;99.90;;;;;;2621952;46;20854;31
2022/12/09 02:13:35;;;;;;;;;;;2.60;99.90;;;;;;2603408;54;20789;31
2022/12/09 02:16:10;;;;;;;;;;;2.60;99.90;;;;;;2603430;54;19942;31
2022/12/09 02:18:49;;;;;;;;;;;2.60;99.90;;;;;;2702092;39;20949;31
2022/12/09 02:21:25;;;;;;;;;;;2.60;99.90;;;;;;2621900;46;19946;31
2022/12/09 02:24:03;;;;;;;;;;;2.60;99.90;;;;;;2621808;46;19941;31
2022/12/09 02:26:40;;;;;;;;;;;2.60;99.90;;;;;;2603346;54;19946;31
2022/12/09 02:29:34;;;;;;;;;;;2.60;99.90;;;;;;2603307;54;19935;31
2022/12/09 02:32:14;;;;;;;;;;;2.60;99.90;;;;;;2603234;54;19935;31
2022/12/09 02:34:52;;;;;;;;;;;2.60;99.90;;;;;;2621831;46;19990;31
2022/12/09 02:37:26;;;;;;;;;;;2.60;99.90;;;;;;2603168;54;22200;31
2022/12/09 02:40:02;;;;;;;;;;;2.70;99.90;;;;;;2603625;54;19957;31
2022/12/09 02:42:37;;;;;;;;;;;2.60;99.90;;;;;;2604146;54;19942;31
2022/12/09 02:45:12;;;;;;;;;;;2.60;99.90;;;;;;2603903;54;20728;31
2022/12/09 02:47:50;;;;;;;;;;;2.60;99.90;;;;;;2603927;54;19943;31
2022/12/09 02:50:27;;;;;;;;;;;2.60;99.90;;;;;;2604008;54;19934;31
2022/12/09 02:53:02;;;;;;;;;;;2.50;99.90;;;;;;2603997;54;20655;31
2022/12/09 02:55:37;;;;;;;;;;;2.60;99.90;;;;;;2603954;54;19935;31
2022/12/09 02:58:10;;;;;;;;;;;2.60;99.90;;;;;;2603803;54;20775;31
2022/12/09 03:00:46;;;;;;;;;;;2.50;99.90;;;;;;2622574;46;20742;31
2022/12/09 03:03:21;;;;;;;;;;;2.60;99.90;;;;;;2622804;46;19938;31
2022/12/09 03:06:01;;;;;;;;;;;2.50;99.90;;;;;;2604238;54;20753;31
2022/12/09 03:08:38;;;;;;;;;;;2.50;99.90;;;;;;2604229;54;20771;31
2022/12/09 03:11:14;;;;;;;;;;;2.50;99.90;;;;;;2604103;54;20754;31
2022/12/09 03:13:51;;;;;;;;;;;2.40;99.90;;;;;;2604096;54;20819;31
2022/12/09 03:16:26;;;;;;;;;;;2.40;99.90;;;;;;2622345;46;20025;31
2022/12/09 03:19:03;;;;;;;;;;;2.40;99.90;;;;;;2603880;54;20815;31
2022/12/09 03:21:40;;;;;;;;;;;2.30;99.90;;;;;;2604126;54;19943;31
2022/12/09 03:24:15;;;;;;;;;;;2.30;99.90;;;;;;2604127;54;20754;31
2022/12/09 03:26:47;;;;;;;;;;;2.20;99.90;;;;;;2604047;54;19961;31
2022/12/09 03:29:21;;;;;;;;;;;2.20;99.90;;;;;;2622069;46;20779;31
2022/12/09 03:31:56;;;;;;;;;;;2.20;99.90;;;;;;2603419;54;20787;31
2022/12/09 03:34:31;;;;;;;;;;;2.20;99.90;;;;;;2603893;54;19934;31
2022/12/09 03:37:08;;;;;;;;;;;2.20;99.90;;;;;;2622678;46;19989;31
2022/12/09 03:39:44;;;;;;;;;;;2.10;99.90;;;;;;2603987;54;19939;31
2022/12/09 03:42:19;;;;;;;;;;;2.10;99.90;;;;;;2604059;54;20759;31
2022/12/09 03:44:55;;;;;;;;;;;2.10;99.90;;;;;;2603953;54;20854;31
2022/12/09 03:47:30;;;;;;;;;;;2.00;99.90;;;;;;2603935;54;19935;31
2022/12/09 03:50:07;;;;;;;;;;;2.10;99.90;;;;;;2603845;54;20785;31
2022/12/09 03:52:46;;;;;;;;;;;2.00;99.90;;;;;;2602930;54;19937;31
2022/12/09 03:55:21;;;;;;;;;;;1.90;99.90;;;;;;2603734;54;19935;31
2022/12/09 03:57:56;;;;;;;;;;;1.90;99.90;;;;;;2622211;46;19941;31
2022/12/09 04:00:30;;;;;;;;;;;1.90;99.90;;;;;;2603904;54;19943;31
2022/12/09 04:03:05;;;;;;;;;;;1.80;99.90;;;;;;2603765;54;20738;31
2022/12/09 04:05:39;;;;;;;;;;;1.80;99.90;;;;;;2622271;46;20744;31
2022/12/09 04:08:16;;;;;;;;;;;1.80;99.90;;;;;;2622403;46;19935;31
2022/12/09 04:10:49;;;;;;;;;;;1.80;99.90;;;;;;2622228;46;19942;31
2022/12/09 04:13:27;;;;;;;;;;;1.80;99.90;;;;;;2603725;54;19934;31
2022/12/09 04:16:03;;;;;;;;;;;1.80;99.90;;;;;;2622624;46;19993;31
2022/12/09 04:18:37;;;;;;;;;;;1.80;99.90;;;;;;2622173;46;20765;31
2022/12/09 04:21:13;;;;;;;;;;;1.70;99.90;;;;;;2622156;46;19994;31
2022/12/09 04:23:50;;;;;;;;;;;1.70;99.90;;;;;;2622628;46;19941;31
2022/12/09 04:26:25;;;;;;;;;;;1.70;99.90;;;;;;2603881;54;20787;31
2022/12/09 04:29:00;;;;;;;;;;;1.60;99.90;;;;;;2603959;54;20750;31
2022/12/09 04:31:35;;;;;;;;;;;1.60;99.90;;;;;;2603761;54;19986;31
2022/12/09 04:34:08;;;;;;;;;;;1.50;99.90;;;;;;2603952;54;19969;31
2022/12/09 04:36:43;;;;;;;;;;;1.50;99.90;;;;;;2622511;46;19980;31
2022/12/09 04:39:21;;;;;;;;;;;1.60;99.90;;;;;;2622514;46;20751;31
2022/12/09 04:41:56;;;;;;;;;;;1.50;99.90;;;;;;2603966;54;19941;31
2022/12/09 04:44:30;;;;;;;;;;;1.50;99.90;;;;;;2622323;46;19934;31
2022/12/09 04:47:04;;;;;;;;;;;1.50;99.90;;;;;;2603744;54;20815;31
2022/12/09 04:49:38;;;;;;;;;;;1.50;99.90;;;;;;2622228;46;20693;31
2022/12/09 04:52:13;;;;;;;;;;;1.40;99.90;;;;;;2622188;46;19935;31
2022/12/09 04:54:50;;;;;;;;;;;1.40;99.90;;;;;;2603869;54;20734;31
2022/12/09 04:57:24;;;;;;;;;;;1.40;99.90;;;;;;2622321;46;19935;31
2022/12/09 04:59:56;;;;;;;;;;;1.30;99.90;;;;;;2702397;39;20770;31
2022/12/09 05:02:32;;;;;;;;;;;1.30;99.90;;;;;;2602843;54;20663;31
2022/12/09 05:05:08;;;;;;;;;;;1.20;99.90;;;;;;2602909;54;19957;31
2022/12/09 05:07:43;;;;;;;;;;;1.20;99.90;;;;;;2603681;54;19934;31
2022/12/09 05:10:23;;;;;;;;;;;1.20;99.90;;;;;;2621887;46;19961;31
2022/12/09 05:12:57;;;;;;;;;;;1.10;99.90;;;;;;2603430;54;20741;31
2022/12/09 05:15:32;;;;;;;;;;;1.10;99.90;;;;;;2608546;46;20733;31
2022/12/09 05:18:06;;;;;;;;;;;1.10;99.90;;;;;;2603459;54;20743;31
2022/12/09 05:20:41;;;;;;;;;;;1.10;99.90;;;;;;2621822;46;19958;31
2022/12/09 05:23:17;;;;;;;;;;;1.10;99.90;;;;;;2603701;54;20900;31
2022/12/09 05:25:55;;;;;;;;;;;1.10;99.90;;;;;;2622080;46;20740;31
2022/12/09 05:28:29;;;;;;;;;;;1.10;99.90;;;;;;2603705;54;20716;31
2022/12/09 05:31:04;;;;;;;;;;;1.10;99.90;;;;;;2603672;54;19934;31
2022/12/09 05:33:42;;;;;;;;;;;1.10;99.90;;;;;;2622002;46;19934;31
2022/12/09 05:36:18;;;;;;;;;;;1.10;99.90;;;;;;2603563;54;19942;31
2022/12/09 05:38:53;;;;;;;;;;;1.10;99.90;;;;;;2603740;54;19993;31
2022/12/09 05:41:31;;;;;;;;;;;1.10;99.90;;;;;;2603339;54;19935;31
2022/12/09 05:44:05;;;;;;;;;;;1.20;99.90;;;;;;2603912;54;20721;31
2022/12/09 05:46:40;;;;;;;;;;;1.10;99.90;;;;;;2603239;54;19934;31
2022/12/09 05:49:16;;;;;;;;;;;1.20;99.90;;;;;;2603516;54;20690;31
2022/12/09 05:51:52;;;;;;;;;;;1.20;99.90;;;;;;2622034;46;19935;31
2022/12/09 05:54:28;;;;;;;;;;;1.20;99.90;;;;;;2617638;46;20807;31
2022/12/09 05:57:06;;;;;;;;;;;1.20;99.90;;;;;;2603219;54;19935;31
2022/12/09 05:59:38;;;;;;;;;;;1.30;99.90;;;;;;2720705;39;22064;31
2022/12/09 06:02:13;;;;;;;;;;;1.30;99.90;;;;;;2603345;54;20030;31
2022/12/09 06:04:49;;;;;;;;;;;1.20;99.90;;;;;;2603294;54;19934;31
2022/12/09 06:07:25;;;;;;;;;;;1.30;99.90;;;;;;2606164;46;19935;31
2022/12/09 06:10:00;;;;;;;;;;;1.30;99.90;;;;;;2618100;46;19943;31
2022/12/09 06:12:36;;;;;;;;;;;1.30;99.90;;;;;;2720442;39;20981;31
2022/12/09 06:15:10;;;;;;;;;;;1.30;99.90;;;;;;2603083;54;19958;31
2022/12/09 06:17:51;;;;;;;;;;;1.30;99.90;;;;;;2622000;46;19935;31
2022/12/09 06:20:27;;;;;;;;;;;1.30;99.90;;;;;;2621841;46;20674;31
2022/12/09 06:23:01;;;;;;;;;;;1.30;99.90;;;;;;2622192;46;19942;31
2022/12/09 06:25:35;;;;;;;;;;;1.80;99.90;;;;;;2621784;46;20738;31
2022/12/09 06:28:12;;;;;;;;;;;1.40;99.90;;;;;;2603668;54;19935;31
2022/12/09 06:30:46;;;;;;;;;;;1.40;99.90;;;;;;2621831;46;19942;31
2022/12/09 06:33:19;;;;;;;;;;;1.40;99.90;;;;;;2621459;46;19957;31
2022/12/09 06:36:13;;;;;;;;;;;1.40;99.90;;;;;;2621894;46;19935;31
2022/12/09 06:38:47;;;;;;;;;;;1.40;99.90;;;;;;2603329;54;19946;31
2022/12/09 06:41:22;;;;;;;;;;;1.50;99.90;;;;;;2603341;54;20756;31
2022/12/09 06:44:00;;;;;;;;;;;1.40;99.90;;;;;;2621701;47;19943;31
2022/12/09 06:46:35;;;;;;;;;;;1.40;99.90;;;;;;2603628;54;19934;31
2022/12/09 06:49:11;;;;;;;;;;;1.40;99.90;;;;;;2603417;54;19935;31
2022/12/09 06:51:45;;;;;;;;;;;1.40;99.90;;;;;;2621780;47;20827;31
2022/12/09 06:54:21;;;;;;;;;;;1.40;99.90;;;;;;2621740;47;20030;31
2022/12/09 06:56:55;;;;;;;;;;;1.50;99.90;;;;;;2621917;47;19935;31
2022/12/09 06:59:37;;;;;;;;;;;1.50;99.90;;;;;;2603229;54;20026;31
2022/12/09 07:02:12;;;;;;;;;;;1.50;99.90;;;;;;2621681;47;19935;31
2022/12/09 07:04:46;;;;;;;;;;;1.50;99.90;;;;;;2603164;54;19935;31
2022/12/09 07:07:22;;;;;;;;;;;1.50;99.90;;;;;;2621519;47;19981;31
2022/12/09 07:09:56;;;;;;;;;;;1.50;99.90;;;;;;2617329;47;19965;31
2022/12/09 07:12:31;;;;;;;;;;;1.50;99.90;;;;;;2620970;47;19948;31
2022/12/09 07:15:10;;;;;;;;;;;1.50;99.90;;;;;;2603348;54;19994;31
2022/12/09 07:17:46;;;;;;;;;;;1.50;99.90;;;;;;2603076;54;19989;31
2022/12/09 07:20:21;;;;;;;;;;;1.50;99.90;;;;;;2603255;54;19942;31
2022/12/09 07:22:57;;;;;;;;;;;1.50;99.90;;;;;;2603334;54;19935;31
2022/12/09 07:25:31;;;;;;;;;;;1.50;99.90;;;;;;2621704;47;19942;31
2022/12/09 07:28:05;;;;;;;;;;;1.60;99.90;;;;;;2622758;46;19941;31
2022/12/09 07:30:43;;;;;;;;;;;1.60;99.90;;;;;;2603644;54;19935;31
2022/12/09 07:33:17;;;;;;;;;;;1.60;99.90;;;;;;2604083;54;19980;31
2022/12/09 07:35:57;;;;;;;;;;;1.80;99.90;;;;;;2603754;54;20752;31
2022/12/09 07:38:31;;;;;;;;;;;1.90;99.90;;;;;;2622309;46;19973;31
2022/12/09 07:41:07;;;;;;;;;;;2.00;99.90;;;;;;2604005;54;19935;31
2022/12/09 07:43:44;;;;;;;;;;;2.00;99.90;;;;;;2618244;46;20779;31
2022/12/09 07:46:27;;;;;;;;;;;2.00;99.90;;;;;;2622588;46;19946;31
2022/12/09 07:49:03;;;;;;;;;;;2.10;99.90;;;;;;2603943;54;19935;31
2022/12/09 07:51:37;;;;;;;;;;;2.30;99.90;;;;;;2603895;54;19935;31
2022/12/09 07:54:14;;;;;;;;;;;2.30;99.90;;;;;;2604089;54;19997;31
2022/12/09 07:56:46;;;;;;;;;;;2.30;99.90;;;;;;2622506;46;19941;31
2022/12/09 07:59:20;;;;;;;;;;;2.40;99.90;;;;;;2603738;54;19934;31
2022/12/09 08:01:58;;;;;;;;;;;2.50;99.90;;;;;;2622107;46;19953;31
2022/12/09 08:04:39;;;;;;;;;;;2.70;99.90;;;;;;2604139;54;19942;31
2022/12/09 08:07:14;;;;;;;;;;;3.10;99.90;;;;;;2603997;54;19935;31
2022/12/09 08:09:53;;;;;;;;;;;3.50;99.90;;;;;;2603803;54;20840;31
2022/12/09 08:12:27;;;;;;;;;;;4.00;99.90;;;;;;2603639;54;20850;31
2022/12/09 08:15:02;;;;;;;;;;;4.40;99.90;;;;;;2622410;46;19942;31
2022/12/09 08:17:40;;;;;;;;;;;5.00;99.90;;;;;;2604962;46;20029;31
2022/12/09 08:20:16;;;;;;;;;;;5.50;99.90;;;;;;2603891;54;19939;31
2022/12/09 08:22:56;;;;;;;;;;;5.90;99.90;;;;;;2603660;54;19935;31
2022/12/09 08:25:30;;;;;;;;;;;6.10;99.90;;;;;;2622491;46;20743;31
2022/12/09 08:28:03;;;;;;;;;;;6.30;99.90;;;;;;2603536;54;19947;31
2022/12/09 08:30:38;;;;;;;;;;;6.10;99.90;;;;;;2622284;46;19935;31
2022/12/09 08:33:15;;;;;;;;;;;6.00;99.90;;;;;;2603672;54;19934;31
2022/12/09 08:35:50;;;;;;;;;;;5.90;99.90;;;;;;2622289;46;19942;31
2022/12/09 08:38:24;;;;;;;;;;;5.80;99.90;;;;;;2603615;54;20876;31
2022/12/09 08:40:58;;;;;;;;;;;5.70;99.90;;;;;;2603535;54;20030;31
2022/12/09 08:43:34;;;;;;;;;;;5.70;99.90;;;;;;2603628;54;20705;31
2022/12/09 08:46:10;;;;;;;;;;;5.80;99.90;;;;;;2603571;54;20761;31
2022/12/09 08:48:49;;;;;;;;;;;6.00;99.90;;;;;;2621933;46;19941;31
2022/12/09 08:51:25;;;;;;;;;;;6.10;99.90;;;;;;2603903;54;19942;31
2022/12/09 08:54:03;;;;;;;;;;;6.40;99.90;;;;;;2603731;54;20714;31
2022/12/09 08:56:38;;;;;;;;;;;6.70;99.90;;;;;;2621738;46;19942;31
2022/12/09 08:59:11;;;;;;;;;;;6.90;99.90;;;;;;2621875;46;20051;31
2022/12/09 09:01:45;;;;;;;;;;;7.30;99.90;;;;;;2603424;54;19941;31
2022/12/09 09:04:24;;;;;;;;;;;7.50;99.90;;;;;;2603052;54;19942;31
2022/12/09 09:06:58;;;;;;;;;;;7.70;99.90;;;;;;2622028;46;20017;31
2022/12/09 09:09:34;;;;;;;;;;;7.80;99.90;;;;;;2603613;54;19993;31
2022/12/09 09:12:07;;;;;;;;;;;8.10;99.90;;;;;;2622013;46;19935;31
2022/12/09 09:14:42;;;;;;;;;;;8.80;99.90;;;;;;2603440;54;20745;31
2022/12/09 09:17:17;;;;;;;;;;;8.40;99.90;;;;;;2603614;54;19941;31
2022/12/09 09:19:56;;;;;;;;;;;8.40;99.90;;;;;;2621854;46;19934;31
2022/12/09 09:22:30;;;;;;;;;;;8.50;99.90;;;;;;2621953;46;20771;31
2022/12/09 09:25:07;;;;;;;;;;;8.50;99.90;;;;;;2603183;54;19934;31
2022/12/09 09:27:44;;;;;;;;;;;8.60;99.90;;;;;;2603532;54;19935;31
2022/12/09 09:30:19;;;;;;;;;;;8.70;99.90;;;;;;2603611;54;20723;31
2022/12/09 09:32:54;;;;;;;;;;;8.70;99.90;;;;;;2621971;46;19966;31
2022/12/09 09:35:33;;;;;;;;;;;8.80;99.90;;;;;;2621971;46;20009;31
2022/12/09 09:38:08;;;;;;;;;;;8.90;99.90;;;;;;2603573;54;20793;31
2022/12/09 09:40:43;;;;;;;;;;;8.90;99.90;;;;;;2603438;54;20028;31
2022/12/09 09:43:17;;;;;;;;;;;9.00;99.90;;;;;;2622059;46;19934;31
2022/12/09 09:45:53;;;;;;;;;;;9.00;99.90;;;;;;2603394;54;20860;31
2022/12/09 09:48:28;;;;;;;;;;;8.90;99.90;;;;;;2603079;54;19989;31
2022/12/09 09:51:07;;;;;;;;;;;8.90;99.90;;;;;;2603443;54;20710;31
2022/12/09 09:53:41;;;;;;;;;;;8.90;99.90;;;;;;2603614;54;19934;31
2022/12/09 09:56:18;;;;;;;;;;;8.90;99.90;;;;;;2603371;54;19946;31
2022/12/09 09:58:53;;;;;;;;;;;8.90;99.90;;;;;;2603546;54;20753;31
2022/12/09 10:01:29;;;;;;;;;;;8.70;99.90;;;;;;2603601;54;20029;31
2022/12/09 10:04:04;;;;;;;;;;;8.60;99.90;;;;;;2603221;54;19950;31
2022/12/09 10:06:44;;;;;;;;;;;8.40;99.90;;;;;;2621674;46;20733;31
2022/12/09 10:09:21;;;;;;;;;;;8.30;99.90;;;;;;2603219;54;20062;31
2022/12/09 10:11:57;;;;;;;;;;;8.20;99.90;;;;;;2621717;46;19946;31
2022/12/09 10:14:37;;;;;;;;;;;8.10;99.90;;;;;;2621599;46;20006;31
2022/12/09 10:17:15;;;;;;;;;;;7.90;99.90;;;;;;2603531;54;19934;31
2022/12/09 10:19:49;;;;;;;;;;;7.80;99.90;;;;;;2621933;46;19935;31
2022/12/09 10:22:27;;;;;;;;;;;7.80;99.90;;;;;;2603126;54;19939;31
2022/12/09 10:25:06;;;;;;;;;;;7.60;99.90;;;;;;2603313;54;19960;31
2022/12/09 10:27:42;;;;;;;;;;;7.50;99.90;;;;;;2603415;54;20769;31
2022/12/09 10:30:17;;;;;;;;;;;7.50;99.90;;;;;;2603260;54;20806;31
2022/12/09 10:32:55;;;;;;;;;;;7.40;99.90;;;;;;2603463;54;19934;31
2022/12/09 10:35:29;;;;;;;;;;;7.20;99.90;;;;;;2612887;46;19942;31
2022/12/09 10:38:10;;;;;;;;;;;7.20;99.90;;;;;;2603016;54;19934;31
2022/12/09 10:40:51;;;;;;;;;;;7.10;99.90;;;;;;2603296;54;19934;31
2022/12/09 10:43:37;;;;;;;;;;;7.00;99.90;;;;;;2621719;47;19938;31
2022/12/09 10:46:11;;;;;;;;;;;7.00;99.90;;;;;;2603325;54;19946;31
2022/12/09 10:48:56;;;;;;;;;;;6.90;99.90;;;;;;2603237;54;19972;31
2022/12/09 10:51:30;;;;;;;;;;;6.80;99.90;;;;;;2603269;54;19941;31
2022/12/09 10:54:18;;;;;;;;;;;6.80;99.90;;;;;;2621896;47;19950;31
2022/12/09 10:57:06;;;;;;;;;;;6.70;99.90;;;;;;2621664;47;19934;31
2022/12/09 10:59:42;;;;;;;;;;;6.60;99.90;;;;;;2603345;54;20849;31
2022/12/09 11:02:20;;;;;;;;;;;6.60;99.90;;;;;;2603863;54;21096;31
2022/12/09 11:04:54;;;;;;;;;;;6.50;99.90;;;;;;2603726;54;19957;31
2022/12/09 11:07:30;;;;;;;;;;;6.80;99.90;;;;;;2603841;54;20707;31
2022/12/09 11:10:18;;;;;;;;;;;6.70;99.90;;;;;;2603899;54;19943;31
2022/12/09 11:12:55;;;;;;;;;;;6.70;99.90;;;;;;2603984;54;19935;31
2022/12/09 11:15:31;;;;;;;;;;;6.60;99.90;;;;;;2613994;46;19945;31
2022/12/09 11:18:06;;;;;;;;;;;6.50;99.90;;;;;;2603953;54;20814;31
2022/12/09 11:20:40;;;;;;;;;;;6.40;99.90;;;;;;2603832;54;20738;31
2022/12/09 11:23:19;;;;;;;;;;;6.60;99.90;;;;;;2618207;46;19990;31
2022/12/09 11:25:57;;;;;;;;;;;6.50;99.90;;;;;;2603587;54;20763;31
2022/12/09 11:28:34;;;;;;;;;;;6.40;99.90;;;;;;2603883;54;19950;31
2022/12/09 11:31:09;;;;;;;;;;;6.30;99.90;;;;;;2604196;54;19976;31
2022/12/09 11:34:03;;;;;;;;;;;6.10;99.90;;;;;;2622515;46;20021;31
2022/12/09 11:36:39;;;;;;;;;;;6.00;99.90;;;;;;2603773;54;20822;31
2022/12/09 11:39:23;;;;;;;;;;;6.00;99.90;;;;;;2613845;46;19942;31
2022/12/09 11:42:16;;;;;;;;;;;5.90;99.90;;;;;;2604066;54;20070;31
2022/12/09 11:44:56;;;;;;;;;;;5.80;99.90;;;;;;2603823;54;19934;31
2022/12/09 11:47:31;;;;;;;;;;;5.70;99.90;;;;;;2603690;54;19981;31
2022/12/09 11:50:29;;;;;;;;;;;5.60;99.90;;;;;;2603895;54;20755;31
2022/12/09 11:53:08;;;;;;;;;;;5.50;99.90;;;;;;2604100;54;19993;31
2022/12/09 11:55:44;;;;;;;;;;;5.40;99.90;;;;;;2603778;54;20753;31
2022/12/09 11:58:23;;;;;;;;;;;5.40;99.90;;;;;;2604105;54;20792;31
2022/12/09 12:00:57;;;;;;;;;;;5.40;99.90;;;;;;2603873;54;20772;31
2022/12/09 12:03:34;;;;;;;;;;;5.40;99.90;;;;;;2603799;54;19935;31
2022/12/09 12:06:09;;;;;;;;;;;5.40;99.90;;;;;;2622498;46;19939;31
2022/12/09 12:08:45;;;;;;;;;;;5.40;99.90;;;;;;2603665;54;20773;31
2022/12/09 12:11:21;;;;;;;;;;;5.40;99.90;;;;;;2603623;54;19947;31
2022/12/09 12:14:00;;;;;;;;;;;5.40;99.90;;;;;;2622195;46;20713;31
2022/12/09 12:16:36;;;;;;;;;;;5.40;99.90;;;;;;2622241;46;19934;31
2022/12/09 12:19:14;;;;;;;;;;;5.30;99.90;;;;;;2622070;46;20089;31
2022/12/09 12:21:52;;;;;;;;;;;5.30;99.90;;;;;;2603997;54;20006;31
2022/12/09 12:24:39;;;;;;;;;;;5.30;99.90;;;;;;2603507;54;20029;31
2022/12/09 12:27:17;;;;;;;;;;;5.20;99.90;;;;;;2622241;46;20753;31
2022/12/09 12:29:55;;;;;;;;;;;5.20;99.90;;;;;;2622057;46;19990;31
2022/12/09 12:32:33;;;;;;;;;;;5.30;99.90;;;;;;2618146;46;19935;31
2022/12/09 12:35:25;;;;;;;;;;;5.30;99.90;;;;;;2622171;46;19935;31
2022/12/09 12:38:02;;;;;;;;;;;5.20;99.90;;;;;;2621734;46;20074;31
2022/12/09 12:40:37;;;;;;;;;;;5.30;99.90;;;;;;2603583;54;20041;31
2022/12/09 12:46:20;;;;;;;;;;;5.30;99.90;;;;;;2622032;46;19934;31
2022/12/09 12:48:58;;;;;;;;;;;5.20;99.90;;;;;;2622115;46;20801;31
2022/12/09 12:51:34;;;;;;;;;;;5.20;99.90;;;;;;2603682;54;20807;31
2022/12/09 12:54:11;;;;;;;;;;;5.20;99.90;;;;;;2622121;46;19942;31
2022/12/09 12:56:47;;;;;;;;;;;5.10;99.90;;;;;;2603707;54;19973;31
2022/12/09 12:59:23;;;;;;;;;;;5.20;99.90;;;;;;2603718;54;20723;31
2022/12/09 13:02:00;;;;;;;;;;;5.10;99.90;;;;;;2603598;54;19934;31
2022/12/09 13:04:34;;;;;;;;;;;5.10;99.90;;;;;;2603488;54;19983;31
2022/12/09 13:07:09;;;;;;;;;;;5.10;99.90;;;;;;2603541;54;19969;31
2022/12/09 13:09:44;;;;;;;;;;;5.00;99.90;;;;;;2622014;46;19946;31
2022/12/09 13:12:52;;;;;;;;;;;5.00;99.90;;;;;;2622285;46;19983;31
2022/12/09 13:15:16;;;;;;;;;;;5.00;99.90;;;;;;2603815;54;20006;31
2022/12/09 13:17:56;;;;;;;;;;;5.00;99.90;;;;;;2603410;54;20837;31
2022/12/09 13:20:31;;;;;;;;;;;5.00;99.90;;;;;;2622166;46;19941;31
2022/12/09 13:23:07;;;;;;;;;;;5.00;99.90;;;;;;2621811;46;19941;31
2022/12/09 13:25:43;;;;;;;;;;;5.00;99.90;;;;;;2621935;47;20884;31
2022/12/09 13:28:18;;;;;;;;;;;5.00;99.90;;;;;;2603702;54;20767;31
2022/12/09 13:30:54;;;;;;;;;;;5.00;99.90;;;;;;2603426;54;20753;31
2022/12/09 13:33:33;;;;;;;;;;;5.00;99.90;;;;;;2622167;46;19942;31
2022/12/09 13:36:09;;;;;;;;;;;4.90;99.90;;;;;;2603505;54;20016;31
2022/12/09 13:38:43;;;;;;;;;;;4.90;99.90;;;;;;2622091;46;19935;31
2022/12/09 13:42:51;;;;;;;;;;;4.90;99.90;;;;;;2603332;54;19935;31
2022/12/09 13:44:27;;;;;;;;;;;4.90;99.90;;;;;;2603256;54;20801;31
2022/12/09 13:47:16;;;;;;;;;;;4.80;99.90;;;;;;2603482;54;20770;31
2022/12/09 13:49:59;;;;;;;;;;;4.90;99.90;;;;;;2622387;46;20045;31
2022/12/09 13:52:48;;;;;;;;;;;4.80;99.90;;;;;;2621991;46;19935;31
2022/12/09 13:55:27;;;;;;;;;;;4.80;99.90;;;;;;2612504;46;20797;31
2022/12/09 13:58:09;;;;;;;;;;;4.80;99.90;;;;;;2621936;46;19994;31
2022/12/09 14:00:44;;;;;;;;;;;5.00;99.90;;;;;;2603540;54;20801;31
2022/12/09 14:03:22;;;;;;;;;;;4.70;99.90;;;;;;2621874;46;19994;31
2022/12/09 14:06:00;;;;;;;;;;;4.70;99.90;;;;;;2603200;54;19942;31
2022/12/09 14:08:33;;;;;;;;;;;4.70;99.90;;;;;;2603421;54;19938;31
2022/12/09 14:11:22;;;;;;;;;;;4.70;99.90;;;;;;2621385;46;19938;31
2022/12/09 14:13:57;;;;;;;;;;;4.60;99.90;;;;;;2603220;54;20799;31
2022/12/09 14:16:35;;;;;;;;;;;4.60;99.90;;;;;;2603291;54;20002;31
2022/12/09 14:19:33;;;;;;;;;;;4.60;99.90;;;;;;2602732;54;19965;31
2022/12/09 14:22:22;;;;;;;;;;;4.60;99.90;;;;;;2617674;46;19942;31
2022/12/09 14:24:59;;;;;;;;;;;4.50;99.90;;;;;;2621825;46;19947;31
2022/12/09 14:27:35;;;;;;;;;;;4.40;99.90;;;;;;2603311;54;19941;31
2022/12/09 14:30:44;;;;;;;;;;;4.40;99.90;;;;;;2603161;54;20026;31
2022/12/09 14:33:22;;;;;;;;;;;4.40;99.90;;;;;;2603199;54;20788;31
2022/12/09 14:35:58;;;;;;;;;;;4.30;99.90;;;;;;2621637;46;19946;31
2022/12/09 14:38:33;;;;;;;;;;;4.30;99.90;;;;;;2621889;46;19961;31
2022/12/09 14:41:17;;;;;;;;;;;4.20;99.90;;;;;;2603324;54;19934;31
2022/12/09 14:43:53;;;;;;;;;;;4.20;99.90;;;;;;2603413;54;20798;31
2022/12/09 14:46:31;;;;;;;;;;;4.20;99.90;;;;;;2603083;54;20799;31
2022/12/09 14:49:07;;;;;;;;;;;4.20;99.90;;;;;;2603313;54;20849;31
2022/12/09 14:51:42;;;;;;;;;;;4.20;99.90;;;;;;2603115;54;19942;31
2022/12/09 14:54:20;;;;;;;;;;;4.10;99.90;;;;;;2603452;54;19938;31
2022/12/09 14:56:58;;;;;;;;;;;4.10;99.90;;;;;;2603179;54;20794;31
2022/12/09 14:59:32;;;;;;;;;;;4.00;99.90;;;;;;2603234;54;19947;31
2022/12/09 15:02:23;;;;;;;;;;;4.00;99.90;;;;;;2603246;54;19943;31
2022/12/09 15:05:02;;;;;;;;;;;4.00;99.90;;;;;;2622034;47;20741;31
2022/12/09 15:07:36;;;;;;;;;;;4.00;99.90;;;;;;2603091;54;20729;31
2022/12/09 15:10:13;;;;;;;;;;;4.00;99.90;;;;;;2621587;47;19994;31
2022/12/09 15:12:50;;;;;;;;;;;3.90;99.90;;;;;;2621839;47;19934;31
2022/12/09 15:15:25;;;;;;;;;;;3.90;99.90;;;;;;2612870;47;20815;31
2022/12/09 15:18:01;;;;;;;;;;;3.90;99.90;;;;;;2603157;54;19935;31
2022/12/09 15:20:36;;;;;;;;;;;3.90;99.90;;;;;;2603186;54;19934;31
2022/12/09 15:23:09;;;;;;;;;;;3.90;99.90;;;;;;2603020;54;20831;31
2022/12/09 15:25:46;;;;;;;;;;;3.90;99.90;;;;;;2621479;47;19934;31
2022/12/09 15:28:25;;;;;;;;;;;3.90;99.90;;;;;;2602998;54;19934;31
2022/12/09 15:30:59;;;;;;;;;;;3.90;99.90;;;;;;2603017;54;19942;31
2022/12/09 15:33:34;;;;;;;;;;;3.90;99.90;;;;;;2621148;47;19950;31
2022/12/09 15:36:10;;;;;;;;;;;3.80;99.90;;;;;;2602935;54;19946;31
2022/12/09 15:38:46;;;;;;;;;;;3.90;99.90;;;;;;2603165;54;19939;31
2022/12/09 15:44:12;;;;;;;;;;;3.80;99.90;;;;;;2603024;54;19935;31
2022/12/09 15:46:49;;;;;;;;;;;3.80;99.90;;;;;;2621390;47;19942;31